Latest Weather Observations for Morawa Airport

IDW60801

Issued at 10:05 am WST Wednesday 24 September 2014 (issued every 30 minutes, with the page automatically refreshed every 10 minutes)

About weather observations | Map of weather stations | Latest weather observations for WA | Other Formats
Station Details ID: 008296 Name: MORAWA AIRPORT Lat: -29.20 Lon: 116.02 Height: 271.4 m
Data from the previous 72 hours. | See also: Recent months at Morawa Airport
Date/Time
WST
Temp
°C
App
Temp
°C
Dew
Point
Rel
Hum
%
Delta-T
°C
Wind Press
QNH
hPa
Press
MSL
hPa
Rain
since 9 am
mm
Dir
 
Spd
km/h
Gust
km/h
Spd
kts
Gust
kts
24/10:00am 20.9 16.6 5.3 36 7.8 NE 17 24 9 13 1024.6 1024.3 0.0
24/09:30am 19.4 17.2 7.8 47 6.0 NE 9 19 5 10 1025.1 1024.7 0.0
24/09:00am 17.1 14.1 7.7 54 4.8 NNE 13 20 7 11 1025.2 1024.8 0.0
24/08:30am 15.9 13.2 7.4 57 4.3 NE 11 17 6 9 1025.2 1024.8 0.0
24/08:00am 13.9 12.3 8.1 68 2.9 ENE 6 11 3 6 1025.1 1024.7 0.0
24/07:30am 12.1 11.3 8.2 77 1.9 SSE 2 4 1 2 1024.9 1024.6 0.0
24/07:00am 9.9 9.6 8.7 92 0.6 CALM 0 0 0 0 1024.5 1024.2 0.0
24/06:30am 8.2 7.0 7.9 98 0.1 SSE 4 4 2 2 1024.4 1024.1 0.0
24/06:00am 8.0 6.3 7.6 97 0.2 SSE 6 7 3 4 1024.4 1024.1 0.0
24/05:30am 8.5 6.9 8.1 97 0.2 S 6 7 3 4 1024.5 1024.2 0.0
24/05:00am 8.6 7.0 7.8 95 0.4 S 6 7 3 4 1024.4 1024.1 0.0
24/04:30am 9.0 7.4 8.1 94 0.4 S 6 6 3 3 1024.4 1024.1 0.0
24/04:00am 9.0 7.4 7.9 93 0.5 S 6 6 3 3 1024.3 1024.0 0.0
24/03:30am 9.0 7.3 7.5 90 0.7 SSE 6 7 3 4 1024.3 1024.0 0.0
24/03:00am 10.0 8.1 7.6 85 1.2 SSE 7 11 4 6 1024.5 1024.2 0.0
24/02:30am 9.9 8.3 8.0 88 0.9 SSW 6 7 3 4 1024.6 1024.3 0.0
24/02:00am 10.1 8.5 8.0 87 1.0 SSW 6 7 3 4 1024.8 1024.5 0.0
24/01:30am 10.6 8.8 8.0 84 1.3 SSW 7 9 4 5 1024.9 1024.6 0.0
24/01:00am 10.6 8.9 8.4 86 1.1 SSW 7 9 4 5 1024.8 1024.5 0.0
24/12:30am 10.9 8.8 8.3 84 1.3 S 9 9 5 5 1024.9 1024.6 0.0
24/12:00am 10.8 9.3 8.4 85 1.2 S 6 7 3 4 1025.2 1024.8 0.0
 
Date/Time
WST
Temp
°C
App
Temp
°C
Dew
Point
Rel
Hum
%
Delta-T
°C
Wind Press
QNH
hPa
Press
MSL
hPa
Rain
since 9 am
mm
Dir
 
Spd
km/h
Gust
km/h
Spd
kts
Gust
kts
23/11:30pm 11.4 9.9 8.6 83 1.4 S 6 9 3 5 1025.2 1024.8 0.0
23/11:00pm 11.7 10.2 8.4 80 1.6 S 6 6 3 3 1025.3 1024.9 0.0
23/10:30pm 12.1 10.6 8.6 79 1.8 S 6 7 3 4 1025.3 1024.9 0.0
23/10:00pm 12.5 11.0 8.4 76 2.1 S 6 7 3 4 1025.4 1025.1 0.0
23/09:30pm 12.7 11.0 8.4 75 2.2 S 7 11 4 6 1025.4 1025.1 0.0
23/09:00pm 13.4 11.9 8.3 71 2.6 S 6 7 3 4 1025.2 1024.8 0.0
23/08:30pm 14.0 12.4 8.0 67 3.0 S 6 6 3 3 1025.2 1024.8 0.0
23/08:00pm 14.3 12.6 7.6 64 3.3 SSE 6 7 3 4 1024.9 1024.6 0.0
23/07:30pm 15.1 13.4 7.4 60 3.9 SSE 6 7 3 4 1024.5 1024.2 0.0
23/07:00pm 15.0 13.0 7.3 60 3.8 SSE 7 7 4 4 1024.1 1023.8 0.0
23/06:30pm 16.2 14.0 6.1 51 5.0 SSE 7 9 4 5 1024.0 1023.7 0.0
23/06:00pm 18.3 15.0 4.5 40 6.6 SE 11 17 6 9 1023.7 1023.4 0.0
23/05:30pm 19.5 15.6 3.6 35 7.6 SE 13 17 7 9 1023.5 1023.2 0.0
23/05:00pm 20.1 15.9 3.8 34 7.8 SSE 15 19 8 10 1023.7 1023.4 0.0
23/04:30pm 20.6 16.8 3.8 33 8.2 SSE 13 24 7 13 1023.4 1023.1 0.0
23/04:00pm 20.5 17.4 3.7 33 8.1 SSE 9 17 5 9 1023.5 1023.2 0.0
23/03:30pm 20.0 17.3 3.7 34 7.9 SSE 7 15 4 8 1023.3 1023.0 0.0
23/03:00pm 19.5 16.8 3.6 35 7.6 SE 7 13 4 7 1023.3 1023.0 0.0
23/02:30pm 20.1 17.1 4.2 35 7.7 SE 9 19 5 10 1023.4 1023.1 0.0
23/02:00pm 19.5 16.6 4.4 37 7.3 ESE 9 19 5 10 1023.7 1023.4 0.0
23/01:30pm 18.8 15.6 4.9 40 6.8 E 11 19 6 10 1024.2 1023.9 0.0
23/01:00pm 18.1 15.3 5.3 43 6.3 ESE 9 17 5 9 1024.6 1024.3 0.0
23/12:30pm 17.4 14.7 5.4 45 5.9 S 9 22 5 12 1024.9 1024.6 0.0
23/12:00pm 16.9 13.4 5.5 47 5.5 ESE 13 20 7 11 1025.6 1025.3 0.0
23/11:30am 16.6 14.0 5.9 49 5.3 ESE 9 17 5 9 1026.0 1025.7 0.0
23/11:00am 16.0 12.9 5.6 50 5.0 ESE 11 19 6 10 1026.5 1026.2 0.0
23/10:30am 15.6 13.0 6.1 53 4.7 E 9 20 5 11 1026.9 1026.6 0.0
23/10:00am 15.5 12.5 6.0 53 4.6 ESE 11 19 6 10 1027.0 1026.7 0.0
23/09:30am 14.4 11.8 6.3 58 4.0 ESE 9 17 5 9 1027.2 1026.9 0.0
23/09:00am 13.5 11.0 6.4 62 3.4 E 9 17 5 9 1027.1 1026.8 0.0
23/08:30am 12.4 9.7 7.5 72 2.4 ESE 11 17 6 9 1026.9 1026.6 0.0
23/08:00am 10.6 8.6 8.5 87 1.0 SE 9 13 5 7 1026.8 1026.5 0.0
23/07:30am 9.3 7.3 8.8 97 0.2 SE 9 13 5 7 1026.7 1026.4 0.0
23/07:00am 8.3 6.8 8.3 100 0.0 S 6 7 3 4 1026.3 1026.0 0.0
23/06:30am 6.6 5.4 6.6 100 0.0 SSW 2 4 1 2 1026.2 1025.9 0.0
23/06:00am 6.6 5.1 6.6 100 0.0 SSW 4 6 2 3 1026.1 1025.8 0.0
23/05:30am 6.4 5.6 6.4 100 0.0 CALM 0 2 0 1 1025.9 1025.6 0.0
23/05:00am 6.7 5.2 6.7 100 0.0 SSW 4 6 2 3 1025.6 1025.3 0.0
23/04:30am 7.1 6.0 7.0 99 0.0 SW 2 4 1 2 1025.4 1025.1 0.0
23/04:00am 7.6 5.8 7.3 98 0.1 SW 6 7 3 4 1025.3 1024.9 0.0
23/03:30am 7.8 6.4 7.4 97 0.2 SW 4 7 2 4 1025.1 1024.7 0.0
23/03:00am 8.0 6.3 7.6 97 0.2 SW 6 7 3 4 1024.9 1024.6 0.0
23/02:30am 8.0 6.4 7.9 99 0.0 SSW 6 7 3 4 1024.9 1024.6 0.0
23/02:00am 8.1 6.4 7.7 97 0.2 S 6 7 3 4 1024.9 1024.6 0.0
23/01:30am 8.4 6.5 7.5 94 0.4 SSW 7 9 4 5 1025.3 1024.9 0.0
23/01:00am 8.8 6.9 7.7 93 0.5 SSW 7 11 4 6 1025.6 1025.3 0.0
23/12:30am 8.9 7.0 7.5 91 0.7 S 7 9 4 5 1025.5 1025.2 0.0
23/12:00am 9.4 7.2 7.8 90 0.8 SSW 9 13 5 7 1025.7 1025.4 0.0
 
Date/Time
WST
Temp
°C
App
Temp
°C
Dew
Point
Rel
Hum
%
Delta-T
°C
Wind Press
QNH
hPa
Press
MSL
hPa
Rain
since 9 am
mm
Dir
 
Spd
km/h
Gust
km/h
Spd
kts
Gust
kts
22/11:30pm 9.7 7.4 7.6 87 1.0 S 9 13 5 7 1025.9 1025.6 0.0
22/11:00pm 10.1 7.6 8.0 87 1.0 SSW 11 15 6 8 1025.8 1025.5 0.0
22/10:30pm 10.5 7.7 8.4 87 1.0 SSW 13 19 7 10 1025.8 1025.5 0.0
22/10:00pm 10.6 8.3 8.9 89 0.8 SSW 11 15 6 8 1025.7 1025.4 0.0
22/09:30pm 11.0 9.0 8.8 86 1.1 SW 9 13 5 7 1025.6 1025.3 0.0
22/09:00pm 11.3 8.9 8.5 83 1.4 SSW 11 15 6 8 1025.4 1025.1 0.0
22/08:30pm 11.9 9.0 8.0 77 1.9 SSW 13 19 7 10 1025.3 1024.9 0.0
22/08:00pm 12.4 9.4 7.7 73 2.3 SSW 13 19 7 10 1025.2 1024.8 0.0
22/07:30pm 12.9 10.1 7.1 68 2.8 SSW 11 17 6 9 1024.7 1024.4 0.0
22/07:00pm 13.5 10.2 6.6 63 3.3 SSW 13 17 7 9 1024.2 1023.9 0.0
22/06:30pm 14.2 10.9 6.6 60 3.7 SW 13 19 7 10 1023.6 1023.3 0.0
22/06:00pm 15.2 11.4 5.7 53 4.6 SSW 15 20 8 11 1023.2 1022.9 0.0
22/05:30pm 16.4 11.9 6.0 50 5.1 SSW 19 26 10 14 1023.0 1022.7 0.0
22/05:00pm 16.6 11.8 4.6 45 5.7 SW 19 26 10 14 1022.6 1022.3 0.0
22/04:30pm 16.8 11.8 4.5 44 5.9 SSW 20 28 11 15 1022.3 1022.0 0.0
22/04:00pm 17.4 12.8 5.4 45 5.9 SSW 19 28 10 15 1022.2 1021.8 0.0
22/03:30pm 16.8 11.8 6.3 50 5.2 SSW 22 30 12 16 1022.1 1021.7 0.0
22/03:00pm 17.4 12.2 5.7 46 5.7 S 22 30 12 16 1021.9 1021.5 0.0
22/02:30pm 16.9 12.7 5.8 48 5.5 SSW 17 28 9 15 1021.9 1021.5 0.0
22/02:00pm 15.8 10.8 4.8 48 5.2 SSW 20 28 11 15 1022.0 1021.6 0.0
22/01:30pm 16.7 12.4 5.3 47 5.5 S 17 24 9 13 1022.0 1021.6 0.0
22/01:00pm 17.0 12.3 5.9 48 5.5 SSW 20 28 11 15 1022.2 1021.8 0.0
22/12:30pm 16.1 10.8 4.8 47 5.4 SSW 22 32 12 17 1022.7 1022.4 0.0
22/12:00pm 15.4 9.8 5.6 52 4.7 SSW 24 35 13 19 1023.0 1022.7 0.0
22/11:30am 14.8 9.9 5.1 52 4.6 SSW 20 30 11 16 1023.1 1022.8 0.0
22/11:00am 15.9 11.3 6.6 54 4.6 S 20 28 11 15 1023.1 1022.8 0.0
22/10:30am 14.5 8.9 5.6 55 4.3 S 24 33 13 18 1023.1 1022.8 0.0
22/10:00am 13.8 8.6 5.7 58 3.9 S 22 32 12 17 1023.3 1023.0 0.0
22/09:30am 13.1 7.9 7.1 67 2.9 S 24 33 13 18 1023.2 1022.9 0.0
22/09:00am 12.7 8.3 7.2 69 2.7 S 20 30 11 16 1023.0 1022.7 25.0
22/08:30am 12.4 8.2 7.3 71 2.5 S 19 26 10 14 1022.6 1022.3 25.0
22/08:00am 11.4 7.7 7.9 79 1.7 S 17 24 9 13 1022.1 1021.7 25.0
22/07:30am 10.6 7.7 8.2 85 1.2 SSW 13 20 7 11 1021.7 1021.3 25.0
22/07:00am 10.3 7.9 8.6 89 0.8 SSW 11 17 6 9 1021.1 1020.8 25.0
22/06:30am 9.7 7.3 8.5 92 0.6 SSW 11 15 6 8 1020.8 1020.5 25.0
22/06:00am 9.8 7.6 9.2 96 0.3 SW 11 15 6 8 1020.3 1020.0 25.0
22/05:30am 10.5 8.0 9.7 95 0.4 SSW 13 17 7 9 1019.9 1019.6 25.0
22/05:00am 10.6 8.3 10.3 98 0.2 SSW 13 20 7 11 1019.7 1019.4 25.0
22/04:30am 10.6 8.6 10.1 97 0.3 SSW 11 15 6 8 1018.9 1018.5 25.0
22/04:00am 10.7 8.6 9.9 95 0.4 SW 11 17 6 9 1018.3 1017.9 25.0
22/03:30am 10.6 7.8 10.0 96 0.3 SW 15 22 8 12 1018.2 1017.8 25.0
22/03:00am 10.8 8.5 10.6 99 0.1 SW 13 20 7 11 1017.9 1017.5 25.0
22/02:30am 10.9 8.7 10.9 100 0.0 SW 13 20 7 11 1017.6 1017.2 25.0
22/02:00am 10.9 8.4 10.9 100 0.0 S 15 22 8 12 1017.1 1016.8 25.0
22/01:30am 11.0 9.2 11.0 100 0.0 W 11 20 6 11 1017.0 1016.7 24.4
22/01:00am 11.1 9.0 11.1 100 0.0 WSW 13 20 7 11 1016.5 1016.2 20.0
22/12:30am 11.1 9.4 11.1 100 0.0 W 11 17 6 9 1015.8 1015.4 19.2
22/12:00am 11.0 8.9 11.0 100 0.0 W 13 17 7 9 1015.8 1015.4 19.0
 
Date/Time
WST
Temp
°C
App
Temp
°C
Dew
Point
Rel
Hum
%
Delta-T
°C
Wind Press
QNH
hPa
Press
MSL
hPa
Rain
since 9 am
mm
Dir
 
Spd
km/h
Gust
km/h
Spd
kts
Gust
kts
21/11:30pm 11.1 8.1 10.8 98 0.2 W 17 24 9 13 1015.8 1015.4 18.8
21/11:00pm 11.1 8.4 10.5 96 0.3 W 15 20 8 11 1015.5 1015.1 18.8
21/10:30pm 11.2 9.2 10.1 93 0.6 W 11 15 6 8 1015.0 1014.6 18.8
21/10:00pm 11.3 8.4 9.6 89 0.9 WSW 15 24 8 13 1014.6 1014.2 18.8
21/09:30pm 11.5 7.9 9.9 90 0.8 W 19 26 10 14 1014.8 1014.4 18.8
21/09:00pm 11.7 8.6 11.7 100 0.0 W 19 28 10 15 1014.9 1014.5 18.8
21/08:30pm 12.4 8.2 12.4 100 0.0 W 26 41 14 22 1014.4 1014.0 18.4
21/08:00pm 12.4 10.3 12.4 100 0.0 NW 15 22 8 12 1014.0 1013.6 17.6
21/07:30pm 12.2 10.8 12.2 100 0.0 NW 11 19 6 10 1013.3 1013.0 17.4
21/07:00pm 11.9 10.4 11.9 100 0.0 NNW 11 17 6 9 1012.5 1012.1 17.4
21/06:30pm 11.8 10.3 11.8 100 0.0 NNW 11 15 6 8 1012.7 1012.4 17.2
21/06:00pm 12.0 9.4 12.0 100 0.0 WNW 17 24 9 13 1013.6 1013.2 16.4
21/05:30pm 12.3 9.8 12.3 100 0.0 W 17 28 9 15 1013.2 1012.9 15.4
21/05:00pm 12.3 10.6 12.3 100 0.0 W 13 19 7 10 1012.8 1012.5 13.4
21/04:30pm 12.4 10.7 12.4 100 0.0 WSW 13 20 7 11 1012.4 1012.0 11.8
21/04:00pm 12.6 9.8 12.6 100 0.0 W 19 24 10 13 1012.2 1011.8 11.4
21/03:30pm 12.8 8.7 12.8 100 0.0 W 26 41 14 22 1012.3 1011.9 10.2
21/03:25pm 12.5 8.0 12.5 100 0.0 W 28 50 15 27 1012.7 1012.4 10.0
21/03:00pm 13.9 11.5 13.9 100 0.0 WSW 19 30 10 16 1012.1 1011.7 8.4
21/02:30pm 14.2 11.9 14.2 100 0.0 WSW 19 33 10 18 1011.3 1010.9 5.0
21/02:00pm 14.9 13.6 14.9 100 0.0 WSW 15 26 8 14 1011.2 1010.8 2.8
21/01:30pm 14.7 12.4 14.7 100 0.0 WSW 20 37 11 20 1011.0 1010.6 2.6
21/01:00pm 14.7 12.0 14.7 100 0.0 WSW 22 33 12 18 1010.7 1010.3 1.8
21/12:30pm 15.3 10.4 13.8 91 0.9 WSW 32 46 17 25 1010.7 1010.3 0.0
21/12:00pm 18.7 14.3 16.7 88 1.2 W 35 56 19 30 1009.5 1009.1 0.0
21/11:54am 18.4 14.0 16.7 90 1.0 W 35 56 19 30 1009.4 1009.0 0.0
21/11:53am 18.4 13.9 16.4 88 1.2 W 35 43 19 23 1009.3 1008.9 0.0
21/11:47am 20.4 10.3 13.4 64 4.1 W 59 80 32 43 1008.8 1008.4 0.0
21/11:30am 25.1 16.7 9.8 38 8.5 NNW 44 63 24 34 1008.2 1007.8 0.0
21/11:00am 26.4 17.3 8.4 32 9.9 NNW 46 70 25 38 1008.5 1008.1 0.0
21/10:30am 26.1 17.5 8.1 32 9.8 NNW 43 65 23 35 1008.9 1008.5 0.0

Other Formats:

Comma delimited format used in spreadsheet applications
http://www.bom.gov.au/fwo/IDW60801/IDW60801.94417.axf

JavaScript Object Notation format (JSON) in row-major order
http://www.bom.gov.au/fwo/IDW60801/IDW60801.94417.json